Time;durP1;ratioP1;P1;durP2;ratioP2;P2;SDS_P1;SDS_P2;PMS_P1;PMS_P2;Temp;Humidity;BMP_temperature;BMP_pressure;BME280_temperature;BME280_humidity;BME280_pressure;Samples;Min_cycle;Max_cycle;Signal;HPM_P1;HPM_P2
2023/02/14 00:01:12;;;;;;;25.40;15.80;;;;;;;4.54;56.44;100667.09;7092905;27;20222;-82
2023/02/14 00:04:37;;;;;;;27.93;15.73;;;;;;;4.26;56.36;100674.75;7093887;27;20293;-81
2023/02/14 00:07:58;;;;;;;28.70;16.70;;;;;;;4.34;56.90;100670.50;7092703;27;20228;-81
2023/02/14 00:11:20;;;;;;;31.77;17.00;;;;;;;3.91;57.55;100674.84;7094285;27;20337;-81
2023/02/14 00:22:16;;;;;;;31.63;17.03;;;;;;;4.06;57.64;100644.28;7025474;27;20201;-83
2023/02/14 00:25:37;;;;;;;28.80;16.73;;;;;;;4.41;57.21;100666.38;7095172;27;20713;-81
2023/02/14 00:28:59;;;;;;;25.90;15.23;;;;;;;4.51;56.98;100670.03;7094558;27;20321;-81
2023/02/14 00:32:22;;;;;;;27.77;16.90;;;;;;;4.29;56.81;100669.16;7095352;27;20231;-81
2023/02/14 00:35:43;;;;;;;31.37;16.00;;;;;;;4.51;56.48;100666.50;7094154;27;20240;-82
2023/02/14 00:39:06;;;;;;;27.80;16.40;;;;;;;4.00;56.69;100641.22;7094775;27;20251;-82
2023/02/14 00:42:27;;;;;;;30.30;16.20;;;;;;;4.08;56.91;100645.00;7095881;27;20684;-81
2023/02/14 00:45:49;;;;;;;29.70;18.00;;;;;;;3.83;57.71;100613.19;7095845;27;20207;-80
2023/02/14 00:49:12;;;;;;;33.40;18.77;;;;;;;4.11;56.66;100665.25;7087950;27;20301;-81
2023/02/14 00:52:33;;;;;;;38.77;19.37;;;;;;;3.89;58.22;100659.91;7067833;28;20267;-82
2023/02/14 00:55:55;;;;;;;33.87;18.27;;;;;;;4.14;58.38;100675.72;7068497;28;20234;-81
2023/02/14 00:59:16;;;;;;;31.20;17.90;;;;;;;4.37;57.27;100667.59;7069482;28;20227;-82
2023/02/14 01:02:38;;;;;;;30.07;18.43;;;;;;;4.20;56.92;100670.72;7078801;28;20205;-81
2023/02/14 01:06:01;;;;;;;34.20;18.27;;;;;;;4.25;57.79;100673.06;7078928;28;20221;-82
2023/02/14 01:09:22;;;;;;;29.97;16.83;;;;;;;4.35;56.41;100682.03;7080056;28;20188;-80
2023/02/14 01:12:44;;;;;;;27.63;16.33;;;;;;;4.17;56.58;100649.63;7072013;28;20225;-81
2023/02/14 01:16:07;;;;;;;32.10;17.40;;;;;;;4.15;56.33;100672.06;7063066;28;20299;-82
2023/02/14 01:19:29;;;;;;;34.67;17.47;;;;;;;3.23;59.33;100681.84;7063946;28;20286;-81
2023/02/14 01:22:52;;;;;;;31.80;16.40;;;;;;;3.63;58.27;100666.38;7062820;28;20202;-82
2023/02/14 01:26:14;;;;;;;29.53;17.27;;;;;;;3.89;57.42;100676.75;7062748;28;20296;-82
2023/02/14 01:29:36;;;;;;;30.60;16.77;;;;;;;4.00;57.29;100668.78;7063784;28;20285;-82
2023/02/14 01:32:57;;;;;;;24.83;15.77;;;;;;;4.10;56.24;100669.75;7063256;28;20371;-81
2023/02/14 01:36:21;;;;;;;30.70;16.63;;;;;;;3.68;56.40;100665.06;7063122;28;20373;-81
2023/02/14 01:39:44;;;;;;;26.83;15.67;;;;;;;3.92;56.15;100667.66;7070235;28;20281;-81
2023/02/14 01:43:05;;;;;;;31.20;15.97;;;;;;;3.65;57.08;100665.28;7069864;28;20250;-81
2023/02/14 01:46:29;;;;;;;25.00;14.73;;;;;;;3.59;56.41;100614.25;7065591;28;20316;-81
2023/02/14 01:49:53;;;;;;;28.00;16.17;;;;;;;3.70;56.64;100652.44;7065623;28;20269;-80
2023/02/14 01:53:16;;;;;;;30.57;16.67;;;;;;;3.25;58.18;100663.91;7065112;28;20298;-81
2023/02/14 01:56:41;;;;;;;27.10;16.97;;;;;;;3.43;57.68;100646.53;7064401;28;20217;-81
2023/02/14 02:03:47;;;;;;;32.80;17.90;;;;;;;3.52;57.61;100658.31;7066456;28;20182;-80
2023/02/14 02:07:12;;;;;;;31.30;17.60;;;;;;;3.91;57.84;100660.63;7068308;27;20232;-80
2023/02/14 02:10:34;;;;;;;34.53;17.33;;;;;;;4.08;57.25;100650.31;7066877;28;20291;-82
2023/02/14 02:13:57;;;;;;;34.83;17.40;;;;;;;3.65;57.87;100617.28;7066409;28;20292;-81
2023/02/14 02:17:24;;;;;;;31.37;16.97;;;;;;;3.64;58.28;100650.25;7064823;28;20274;-80
2023/02/14 02:21:09;;;;;;;32.40;17.63;;;;;;;3.84;57.77;100648.72;7066613;28;20261;-81
2023/02/14 02:24:41;;;;;;;31.67;17.90;;;;;;;3.69;57.15;100650.75;7066254;28;20245;-82
2023/02/14 02:28:18;;;;;;;30.10;17.17;;;;;;;3.31;59.07;100655.44;7065011;27;20285;-80
2023/02/14 02:31:55;;;;;;;33.77;18.10;;;;;;;3.32;59.08;100653.66;7066613;27;20269;-81
2023/02/14 02:35:36;;;;;;;34.83;18.97;;;;;;;3.63;58.36;100650.34;7066482;28;20282;-81
2023/02/14 02:39:10;;;;;;;31.80;16.90;;;;;;;3.80;58.02;100660.59;7066527;28;20255;-80
2023/02/14 02:42:39;;;;;;;33.20;18.00;;;;;;;3.99;57.20;100666.22;7065956;28;20192;-79
2023/02/14 02:53:29;;;;;;;27.13;16.27;;;;;;;3.70;56.73;100639.13;7089960;27;20187;-80
2023/02/14 02:56:54;;;;;;;26.77;16.77;;;;;;;3.80;56.43;100634.78;7089599;27;20307;-80
2023/02/14 03:00:18;;;;;;;26.57;16.00;;;;;;;3.76;56.10;100630.63;7090412;27;20246;-80
2023/02/14 03:07:35;;;;;;;33.03;17.80;;;;;;;3.30;57.46;100648.41;7035352;27;20822;-79
2023/02/14 03:10:58;;;;;;;31.90;17.30;;;;;;;3.63;57.20;100648.56;7090827;27;20298;-80
2023/02/14 03:14:20;;;;;;;30.00;16.33;;;;;;;3.09;57.41;100652.69;7089616;27;20208;-80
2023/02/14 03:17:50;;;;;;;30.10;17.13;;;;;;;3.14;57.97;100655.84;7088978;27;20223;-81
2023/02/14 03:21:22;;;;;;;27.93;15.47;;;;;;;3.35;58.23;100645.41;7095699;27;20275;-81
2023/02/14 03:24:46;;;;;;;31.20;16.97;;;;;;;3.18;58.06;100654.66;7095883;27;20220;-82
2023/02/14 03:28:13;;;;;;;34.97;17.83;;;;;;;3.41;57.67;100663.59;7095306;27;20238;-81
2023/02/14 03:31:40;;;;;;;29.83;16.63;;;;;;;3.55;56.88;100656.28;7095229;27;20202;-80
2023/02/14 03:35:11;;;;;;;33.87;17.73;;;;;;;2.89;58.40;100661.28;7095437;27;20287;-81
2023/02/14 03:38:38;;;;;;;31.10;17.70;;;;;;;3.42;57.89;100655.50;7095952;27;20287;-81
2023/02/14 03:42:03;;;;;;;30.10;17.67;;;;;;;3.71;57.23;100642.66;7095508;27;20361;-80
2023/02/14 03:45:30;;;;;;;30.10;16.30;;;;;;;3.72;56.72;100639.00;7095930;27;20215;-81
2023/02/14 03:48:52;;;;;;;28.50;17.13;;;;;;;3.19;56.70;100592.41;7096223;27;20300;-80
2023/02/14 03:52:15;;;;;;;29.03;16.70;;;;;;;3.32;57.03;100645.66;7105736;27;20227;-80
2023/02/14 03:55:41;;;;;;;33.90;18.37;;;;;;;3.02;58.16;100639.94;7097889;27;20237;-80
2023/02/14 03:59:06;;;;;;;34.63;17.80;;;;;;;3.05;57.90;100650.34;7096442;27;20216;-81
2023/02/14 04:02:32;;;;;;;32.17;17.00;;;;;;;3.22;57.42;100648.16;7098275;27;20260;-80
2023/02/14 04:05:53;;;;;;;33.33;17.63;;;;;;;2.85;58.02;100640.31;7098374;27;20257;-79
2023/02/14 04:09:15;;;;;;;32.87;17.23;;;;;;;2.99;58.05;100640.16;7098751;27;20334;-80
2023/02/14 04:12:36;;;;;;;33.67;17.70;;;;;;;2.93;57.89;100638.78;7099383;27;20331;-80
2023/02/14 04:15:58;;;;;;;27.00;16.60;;;;;;;2.85;57.96;100637.66;7096753;27;20295;-80
2023/02/14 04:19:22;;;;;;;36.40;18.60;;;;;;;2.89;59.23;100639.13;7098704;27;20222;-81
2023/02/14 04:22:45;;;;;;;36.03;18.07;;;;;;;3.22;58.50;100644.63;7097443;27;20215;-80
2023/02/14 04:26:06;;;;;;;34.87;17.20;;;;;;;3.31;57.83;100626.13;7096991;27;20204;-80
2023/02/14 04:29:28;;;;;;;34.03;19.33;;;;;;;3.32;57.46;100642.97;7095790;27;20275;-80
2023/02/14 04:32:50;;;;;;;32.63;17.63;;;;;;;3.25;57.16;100633.75;7096964;27;20264;-79
2023/02/14 04:36:12;;;;;;;32.63;17.40;;;;;;;3.37;56.71;100633.66;7100231;27;20232;-80
2023/02/14 04:39:34;;;;;;;32.47;17.20;;;;;;;3.29;57.39;100630.72;7106567;27;20248;-80
2023/02/14 04:42:56;;;;;;;30.83;17.67;;;;;;;3.66;56.53;100624.28;7100194;27;20249;-81
2023/02/14 04:46:17;;;;;;;30.30;17.47;;;;;;;3.48;57.38;100620.38;7093372;27;20710;-81
2023/02/14 04:49:39;;;;;;;31.50;17.37;;;;;;;3.22;57.55;100634.81;7103325;27;20277;-80
2023/02/14 04:53:02;;;;;;;34.90;20.30;;;;;;;3.43;57.20;100632.38;7068249;27;20348;-80
2023/02/14 04:56:24;;;;;;;27.97;16.67;;;;;;;3.69;56.43;100620.56;7058704;28;20712;-81
2023/02/14 04:59:46;;;;;;;35.27;17.80;;;;;;;3.13;56.82;100616.84;7059032;28;20551;-81
2023/02/14 05:03:07;;;;;;;34.57;19.67;;;;;;;2.81;57.16;100605.06;7059099;28;20318;-81
2023/02/14 05:06:29;;;;;;;29.53;17.30;;;;;;;2.84;57.40;100630.63;7058006;28;20228;-80
2023/02/14 05:09:52;;;;;;;36.10;19.63;;;;;;;2.91;58.39;100626.53;7058691;28;20228;-80
2023/02/14 05:13:13;;;;;;;39.03;20.80;;;;;;;2.69;57.82;100623.75;7058495;28;20269;-80
2023/02/14 05:16:35;;;;;;;38.30;18.97;;;;;;;2.94;58.10;100631.63;7056883;28;20224;-80
2023/02/14 05:19:56;;;;;;;32.33;17.37;;;;;;;2.91;57.97;100626.53;7058493;28;20714;-80
2023/02/14 05:23:18;;;;;;;29.53;17.93;;;;;;;2.75;57.80;100629.50;7057825;28;20252;-80
2023/02/14 05:26:41;;;;;;;36.67;19.57;;;;;;;3.04;57.85;100630.88;7057339;28;20288;-80
2023/02/14 05:30:02;;;;;;;37.87;19.40;;;;;;;2.67;58.60;100629.16;7058546;28;20254;-79
2023/02/14 05:33:24;;;;;;;34.83;17.67;;;;;;;2.93;57.57;100587.31;7057940;28;20265;-80
2023/02/14 05:36:46;;;;;;;32.70;17.13;;;;;;;2.78;56.91;100621.25;7057351;28;20711;-81
2023/02/14 05:40:08;;;;;;;33.00;17.63;;;;;;;2.27;57.67;100491.13;7062448;28;20350;-80
2023/02/14 05:43:31;;;;;;;33.23;17.30;;;;;;;2.88;57.32;100640.06;7064529;27;20303;-81
2023/02/14 05:46:53;;;;;;;33.73;18.90;;;;;;;3.05;57.14;100629.03;7078137;27;20244;-80
2023/02/14 05:50:15;;;;;;;36.87;20.20;;;;;;;2.86;56.48;100613.56;7079745;27;20233;-79
2023/02/14 05:53:37;;;;;;;38.17;20.67;;;;;;;2.86;56.50;100621.56;7064446;28;20208;-79
2023/02/14 05:56:58;;;;;;;39.83;20.43;;;;;;;2.89;56.85;100641.81;7079260;27;20265;-78
2023/02/14 06:00:23;;;;;;;32.33;18.93;;;;;;;2.70;57.21;100612.13;7090262;27;20244;-80
2023/02/14 06:03:45;;;;;;;37.00;19.53;;;;;;;2.16;57.60;100645.34;7093762;27;20200;-78
2023/02/14 06:07:06;;;;;;;34.10;18.60;;;;;;;2.55;57.50;100645.22;7091942;27;20283;-79
2023/02/14 06:10:28;;;;;;;43.97;21.87;;;;;;;2.27;59.23;100643.66;7086324;27;20349;-78
2023/02/14 06:13:49;;;;;;;36.60;19.80;;;;;;;2.69;58.59;100648.56;7063987;28;20271;-78
2023/02/14 06:17:12;;;;;;;40.53;19.70;;;;;;;3.16;56.90;100640.63;7087708;27;20228;-79
2023/02/14 06:20:34;;;;;;;35.23;20.13;;;;;;;3.09;56.70;100651.84;7090370;27;20204;-78
2023/02/14 06:23:56;;;;;;;30.77;17.67;;;;;;;3.02;57.08;100661.25;7090439;27;20577;-78
2023/02/14 06:27:17;;;;;;;39.27;21.17;;;;;;;2.96;56.36;100649.22;7085689;27;20306;-79
2023/02/14 06:30:39;;;;;;;34.80;18.67;;;;;;;2.92;55.97;100647.75;7075393;27;20224;-78
2023/02/14 06:34:02;;;;;;;34.97;20.03;;;;;;;2.72;56.43;100628.88;7090984;27;20283;-79
2023/02/14 06:37:23;;;;;;;46.07;25.97;;;;;;;3.00;56.79;100664.03;7065609;27;20249;-78
2023/02/14 06:40:45;;;;;;;31.40;18.97;;;;;;;3.14;55.98;100623.03;7073431;27;20217;-79
2023/02/14 06:44:07;;;;;;;32.50;17.43;;;;;;;3.24;55.37;100662.22;7074305;27;20268;-79
2023/02/14 06:47:29;;;;;;;34.00;17.50;;;;;;;3.28;54.82;100644.16;7090463;27;20852;-78
2023/02/14 06:50:52;;;;;;;32.47;19.03;;;;;;;2.86;56.07;100656.19;7085438;27;20291;-78
2023/02/14 06:54:13;;;;;;;33.70;19.23;;;;;;;2.73;56.38;100673.16;7091559;27;20231;-79
2023/02/14 06:57:35;;;;;;;65.33;31.03;;;;;;;2.01;56.94;100607.38;7089981;27;20254;-78
2023/02/14 07:00:57;;;;;;;57.33;25.53;;;;;;;2.03;58.09;100641.88;7090240;27;20264;-79
2023/02/14 07:04:18;;;;;;;62.80;28.77;;;;;;;2.71;56.69;100670.63;7090672;27;20685;-78
2023/02/14 07:07:41;;;;;;;49.70;25.27;;;;;;;2.78;56.91;100668.38;7090454;27;20235;-78
2023/02/14 07:11:02;;;;;;;43.57;23.40;;;;;;;2.46;56.88;100638.72;7096992;27;20248;-80
2023/02/14 07:14:24;;;;;;;47.77;25.27;;;;;;;2.69;57.27;100672.53;7091125;27;20350;-79
2023/02/14 07:17:46;;;;;;;47.30;25.47;;;;;;;2.81;57.29;100650.34;7085735;27;20284;-77
2023/02/14 07:21:07;;;;;;;43.67;22.60;;;;;;;2.83;56.60;100655.56;7087513;27;20253;-78
2023/02/14 07:24:30;;;;;;;35.57;20.57;;;;;;;2.82;56.77;100670.69;7087683;27;20288;-78
2023/02/14 07:27:52;;;;;;;44.87;23.07;;;;;;;2.85;57.55;100664.28;7086577;27;20236;-78
2023/02/14 07:31:13;;;;;;;38.47;20.80;;;;;;;3.27;56.84;100655.81;7086938;27;21048;-79
2023/02/14 07:34:34;;;;;;;43.73;24.70;;;;;;;3.93;54.64;100648.88;7087212;27;20242;-79
2023/02/14 07:37:56;;;;;;;70.47;30.97;;;;;;;4.04;53.76;100648.88;7079240;27;20247;-78
2023/02/14 07:41:19;;;;;;;31.67;18.73;;;;;;;4.38;53.79;100633.72;7085839;27;20285;-77
2023/02/14 07:44:40;;;;;;;43.77;21.63;;;;;;;4.76;52.13;100604.78;7086270;27;20359;-77
2023/02/14 07:48:03;;;;;;;36.83;19.47;;;;;;;5.28;51.42;100647.66;7085203;27;20694;-78
2023/02/14 07:51:24;;;;;;;31.23;18.17;;;;;;;5.75;50.59;100639.16;7081864;27;20218;-79
2023/02/14 07:54:46;;;;;;;30.87;18.53;;;;;;;6.45;49.25;100618.72;7083514;27;20250;-78
2023/02/14 07:58:09;;;;;;;30.80;16.43;;;;;;;7.77;46.33;100634.16;7057422;28;20283;-78
2023/02/14 08:01:30;;;;;;;24.33;15.17;;;;;;;8.17;48.31;100632.13;7076682;27;20205;-79
2023/02/14 08:04:52;;;;;;;26.10;16.80;;;;;;;8.77;43.66;100628.94;7085672;27;20755;-78
2023/02/14 08:08:13;;;;;;;27.43;17.73;;;;;;;8.98;43.93;100622.31;7070305;27;20240;-78
2023/02/14 08:18:55;;;;;;;32.27;18.23;;;;;;;10.71;41.43;100605.19;7084687;27;20779;-79
2023/02/14 08:22:18;;;;;;;26.03;18.30;;;;;;;11.49;39.42;100610.13;7079039;27;20290;-79
2023/02/14 08:25:39;;;;;;;25.17;16.57;;;;;;;11.64;38.94;100615.72;7067791;27;20203;-79
2023/02/14 08:29:01;;;;;;;29.77;18.47;;;;;;;11.70;38.23;100612.34;7064083;27;20280;-79
2023/02/14 08:32:24;;;;;;;29.60;19.17;;;;;;;11.40;39.31;100613.81;7081878;27;20238;-78
2023/02/14 08:35:46;;;;;;;31.97;21.47;;;;;;;10.73;40.25;100623.88;7074069;27;20253;-78
2023/02/14 08:39:08;;;;;;;28.77;19.93;;;;;;;10.79;41.23;100626.78;7060938;27;20236;-78
2023/02/14 08:42:30;;;;;;;29.37;19.47;;;;;;;12.93;38.73;100612.56;7079774;27;20200;-78
2023/02/14 08:45:52;;;;;;;25.07;16.83;;;;;;;13.63;36.23;100602.56;7073002;27;20200;-78
2023/02/14 08:49:15;;;;;;;32.30;19.70;;;;;;;14.53;35.09;100591.53;7076610;27;20268;-79
2023/02/14 08:52:36;;;;;;;27.60;19.07;;;;;;;13.94;35.28;100587.03;7086425;27;20282;-80
2023/02/14 08:56:02;;;;;;;27.60;18.27;;;;;;;14.34;35.37;100594.81;7058170;27;20197;-79
2023/02/14 08:59:24;;;;;;;24.13;17.73;;;;;;;15.48;33.60;100588.56;7058508;28;20259;-78
2023/02/14 09:02:45;;;;;;;28.73;19.23;;;;;;;15.12;35.61;100591.28;7085664;27;20653;-78
2023/02/14 09:06:10;;;;;;;25.53;16.67;;;;;;;16.01;33.02;100579.88;7084716;27;20295;-78
2023/02/14 09:09:32;;;;;;;26.40;18.33;;;;;;;15.51;35.26;100582.78;7085512;27;20224;-78
2023/02/14 09:12:53;;;;;;;23.00;18.37;;;;;;;15.72;35.29;100586.31;7088436;27;20705;-78
2023/02/14 09:16:17;;;;;;;22.93;17.23;;;;;;;15.12;35.27;100569.56;7089938;27;20347;-79
2023/02/14 09:19:38;;;;;;;25.33;17.73;;;;;;;14.78;35.36;100574.78;7091704;27;20193;-79
2023/02/14 09:23:01;;;;;;;21.13;16.03;;;;;;;15.31;35.56;100568.06;7091726;27;20262;-79
2023/02/14 09:26:23;;;;;;;21.67;14.93;;;;;;;13.01;39.41;100573.81;7090823;27;20355;-79
2023/02/14 09:29:44;;;;;;;19.87;15.53;;;;;;;11.36;43.21;100514.38;7091165;27;20295;-79
2023/02/14 09:33:06;;;;;;;18.20;13.70;;;;;;;11.71;44.00;100573.50;7091490;27;20212;-79
2023/02/14 09:40:09;;;;;;;21.57;15.73;;;;;;;11.03;45.71;100555.88;7090919;27;20203;-77
2023/02/14 09:43:34;;;;;;;20.27;14.67;;;;;;;10.98;45.95;100569.84;7087592;27;20256;-79
2023/02/14 09:46:59;;;;;;;19.33;14.47;;;;;;;11.28;45.77;100563.00;7093088;27;20688;-75
2023/02/14 09:50:24;;;;;;;17.50;13.47;;;;;;;11.99;44.27;100554.03;7091271;27;20208;-79
2023/02/14 09:53:47;;;;;;;17.53;13.90;;;;;;;11.37;46.06;100567.38;7092084;27;20189;-78
2023/02/14 09:57:14;;;;;;;19.17;14.53;;;;;;;10.80;45.77;100560.19;7088883;27;20231;-78
2023/02/14 10:00:38;;;;;;;19.17;14.10;;;;;;;11.15;45.50;100554.53;7090121;27;20659;-78
2023/02/14 10:04:22;;;;;;;19.53;14.67;;;;;;;10.67;47.10;100566.03;7078998;27;20216;-78
2023/02/14 10:07:56;;;;;;;20.87;14.70;;;;;;;10.74;47.00;100541.97;7055971;27;20272;-78
2023/02/14 10:11:21;;;;;;;20.40;14.60;;;;;;;10.24;48.21;100551.84;7071583;27;20276;-78
2023/02/14 10:14:44;;;;;;;19.90;15.23;;;;;;;9.02;51.05;100528.66;7064186;27;20188;-78
2023/02/14 10:18:11;;;;;;;20.50;15.37;;;;;;;8.56;52.57;100557.59;7088233;27;20223;-78
2023/02/14 10:21:38;;;;;;;19.07;14.90;;;;;;;10.64;48.35;100536.69;7102168;27;20199;-78
2023/02/14 10:25:02;;;;;;;18.10;14.30;;;;;;;10.49;48.27;100545.56;7065569;27;20192;-79
2023/02/14 10:28:28;;;;;;;19.57;14.90;;;;;;;10.80;47.76;100528.66;7061717;28;20225;-79
2023/02/14 10:31:55;;;;;;;19.40;14.53;;;;;;;10.69;48.08;100530.81;7081213;27;20215;-78
2023/02/14 10:35:23;;;;;;;20.87;14.67;;;;;;;11.97;45.73;100504.72;7084617;27;20260;-80
2023/02/14 10:38:49;;;;;;;20.90;15.20;;;;;;;12.21;44.15;100514.63;7089116;27;20295;-78
2023/02/14 10:42:19;;;;;;;19.17;14.23;;;;;;;12.55;45.32;100516.00;7086287;27;20709;-80
2023/02/14 10:45:45;;;;;;;18.90;13.80;;;;;;;13.44;44.23;100509.03;7071278;27;20676;-79
2023/02/14 10:49:18;;;;;;;28.50;18.10;;;;;;;12.92;43.61;100453.88;7091436;27;20312;-81
2023/02/14 10:52:44;;;;;;;17.97;14.27;;;;;;;14.29;41.47;100502.25;7091922;27;20305;-81
2023/02/14 10:56:08;;;;;;;90.67;63.33;;;;;;;14.50;41.79;100459.75;7091703;27;20249;-81
2023/02/14 10:59:34;;;;;;;18.40;14.00;;;;;;;15.23;40.27;100473.09;7091643;27;20689;-82
2023/02/14 11:02:58;;;;;;;17.67;13.90;;;;;;;13.27;42.63;100485.78;7066565;27;20272;-79
2023/02/14 11:06:21;;;;;;;16.30;14.10;;;;;;;14.47;41.78;100478.28;7062048;28;20230;-80
2023/02/14 11:09:42;;;;;;;16.77;12.83;;;;;;;14.15;40.43;100481.38;7061328;28;20231;-78
2023/02/14 11:13:26;;;;;;;20.07;15.93;;;;;;;13.29;42.48;100467.47;7060401;28;20287;-78
2023/02/14 11:16:50;;;;;;;17.90;13.87;;;;;;;12.48;44.48;100470.88;7069517;27;20291;-78
2023/02/14 11:20:26;;;;;;;17.60;13.37;;;;;;;13.72;41.69;100457.78;7080797;27;20196;-77
2023/02/14 11:23:50;;;;;;;20.30;14.60;;;;;;;12.68;44.06;100464.03;7057794;28;20192;-78
2023/02/14 11:27:18;;;;;;;19.73;14.67;;;;;;;13.84;41.96;100456.28;7057750;28;20455;-78
2023/02/14 11:30:41;;;;;;;16.63;14.13;;;;;;;13.66;41.87;100442.25;7067651;27;20640;-79
2023/02/14 11:34:04;;;;;;;17.53;13.83;;;;;;;12.41;44.42;100426.63;7086279;27;20195;-77
2023/02/14 11:37:28;;;;;;;20.03;14.90;;;;;;;13.67;42.54;100444.78;7081431;27;20216;-78
2023/02/14 11:40:55;;;;;;;18.80;14.13;;;;;;;13.95;41.70;100442.25;7088102;27;20212;-78
2023/02/14 11:44:21;;;;;;;18.97;14.43;;;;;;;13.04;43.85;100432.66;7087632;27;20199;-79
2023/02/14 11:47:42;;;;;;;18.13;13.77;;;;;;;13.79;42.78;100437.88;7086848;27;20232;-78
2023/02/14 11:51:07;;;;;;;18.73;14.00;;;;;;;14.38;41.35;100420.56;7087145;27;20291;-78
2023/02/14 11:54:32;;;;;;;18.83;14.60;;;;;;;14.47;40.75;100424.84;7081774;27;20193;-78
2023/02/14 11:57:55;;;;;;;18.17;13.23;;;;;;;14.36;41.14;100400.91;7065860;27;20225;-79
2023/02/14 12:01:22;;;;;;;18.07;13.33;;;;;;;14.85;40.12;100398.31;7073443;27;20201;-78
2023/02/14 12:04:45;;;;;;;18.57;15.13;;;;;;;15.10;40.23;100402.34;7068379;27;20200;-78
2023/02/14 12:08:07;;;;;;;16.63;13.27;;;;;;;15.23;39.45;100397.00;7059780;28;20365;-78
2023/02/14 12:11:31;;;;;;;16.50;13.60;;;;;;;15.00;40.19;100382.78;7058235;27;20224;-77
2023/02/14 12:15:20;;;;;;;18.03;13.63;;;;;;;14.60;40.33;100369.84;7060954;27;20230;-78
2023/02/14 12:18:52;;;;;;;17.93;13.57;;;;;;;14.89;39.80;100384.16;7086395;27;20388;-77
2023/02/14 12:22:16;;;;;;;16.90;12.70;;;;;;;14.85;40.39;100374.72;7085394;27;20701;-77
2023/02/14 12:25:42;;;;;;;15.93;13.23;;;;;;;15.58;39.67;100361.53;7085000;27;20710;-77
2023/02/14 12:29:12;;;;;;;17.17;14.37;;;;;;;16.37;37.99;100357.31;7085535;27;20232;-79
2023/02/14 12:32:35;;;;;;;15.67;13.57;;;;;;;16.25;37.67;100337.19;7085307;27;20203;-78
2023/02/14 12:36:04;;;;;;;16.57;12.90;;;;;;;16.34;37.21;100325.91;7073286;27;20210;-78
2023/02/14 12:39:30;;;;;;;17.13;12.87;;;;;;;16.74;36.06;100343.22;7078564;27;20294;-78
2023/02/14 12:43:08;;;;;;;15.20;13.33;;;;;;;16.61;36.14;100330.41;7073419;27;20335;-77
2023/02/14 12:46:42;;;;;;;15.93;12.77;;;;;;;16.02;36.23;100329.34;7083901;27;20611;-77
2023/02/14 12:50:19;;;;;;;13.70;12.13;;;;;;;15.69;37.11;100305.78;7073780;28;20319;-78
2023/02/14 12:53:49;;;;;;;14.57;12.87;;;;;;;16.68;36.56;100330.44;7077373;27;20238;-78
2023/02/14 12:57:20;;;;;;;13.80;11.13;;;;;;;15.85;36.55;100308.97;7083826;27;20311;-78
2023/02/14 13:00:48;;;;;;;14.13;11.53;;;;;;;15.62;37.26;100323.94;7090484;27;20684;-78
2023/02/14 13:04:31;;;;;;;15.17;12.90;;;;;;;16.03;37.59;100309.25;7092669;27;20312;-78
2023/02/14 13:08:06;;;;;;;16.13;12.47;;;;;;;16.73;35.86;100309.69;7079045;28;20246;-77
2023/02/14 13:11:35;;;;;;;17.67;13.77;;;;;;;16.60;36.05;100273.41;7092296;27;20239;-78
2023/02/14 13:15:06;;;;;;;18.40;11.93;;;;;;;16.97;36.13;100319.09;7093872;27;20213;-78
2023/02/14 13:18:35;;;;;;;14.80;12.27;;;;;;;16.29;36.79;100309.34;7074987;27;20551;-78
2023/02/14 13:21:58;;;;;;;14.83;12.53;;;;;;;16.94;36.39;100308.66;7077638;27;20680;-78
2023/02/14 13:25:30;;;;;;;18.00;13.03;;;;;;;16.63;36.74;100290.16;7084312;27;20215;-79
2023/02/14 13:28:56;;;;;;;15.73;13.10;;;;;;;16.63;36.26;100292.06;7084552;27;20320;-79
2023/02/14 13:32:20;;;;;;;14.80;12.17;;;;;;;16.68;36.38;100293.13;7085021;27;20200;-78
2023/02/14 13:35:41;;;;;;;17.80;13.20;;;;;;;16.27;36.93;100280.69;7085135;27;20295;-78
2023/02/14 13:39:04;;;;;;;17.33;13.37;;;;;;;16.95;36.23;100283.06;7084433;27;20237;-79
2023/02/14 13:42:55;;;;;;;16.07;13.50;;;;;;;17.00;36.02;100278.69;7084959;27;20271;-79
2023/02/14 13:46:19;;;;;;;17.77;13.07;;;;;;;16.97;36.29;100283.69;7084075;27;20337;-79
2023/02/14 13:49:47;;;;;;;16.37;13.03;;;;;;;16.85;36.73;100279.91;7084443;27;20320;-78
2023/02/14 13:53:11;;;;;;;16.07;13.87;;;;;;;17.19;35.92;100274.25;7056783;28;20725;-79
2023/02/14 13:56:34;;;;;;;17.33;14.53;;;;;;;17.24;36.36;100267.13;7055913;28;20231;-79
2023/02/14 14:00:38;;;;;;;20.57;13.83;;;;;;;16.92;36.47;100273.41;7059417;27;20258;-79
2023/02/14 14:04:03;;;;;;;20.77;14.67;;;;;;;17.11;36.71;100261.66;7090100;27;20279;-78
2023/02/14 14:07:29;;;;;;;24.17;20.37;;;;;;;17.28;36.58;100249.25;7088901;27;20212;-78
2023/02/14 14:10:52;;;;;;;18.37;14.47;;;;;;;17.47;36.59;100263.94;7090300;27;20208;-78
2023/02/14 14:14:35;;;;;;;20.00;16.00;;;;;;;16.74;37.51;100262.31;7090888;27;20742;-78
2023/02/14 14:18:31;;;;;;;19.17;15.40;;;;;;;16.75;38.07;100268.63;7090039;27;20227;-78
2023/02/14 14:22:02;;;;;;;22.97;16.90;;;;;;;16.70;38.51;100268.41;7089620;27;20205;-77
2023/02/14 14:25:31;;;;;;;20.40;15.83;;;;;;;16.32;39.12;100257.22;7088400;27;20288;-78
2023/02/14 14:28:54;;;;;;;19.97;15.37;;;;;;;16.48;38.97;100261.47;7089343;27;20859;-78
2023/02/14 14:32:20;;;;;;;18.07;15.00;;;;;;;16.47;38.85;100247.03;7089116;27;20210;-78
2023/02/14 14:35:52;;;;;;;22.70;16.77;;;;;;;16.20;39.27;100239.81;7088667;27;20196;-79
2023/02/14 14:39:25;;;;;;;20.30;15.80;;;;;;;16.27;39.19;100248.84;7092206;27;20714;-78
2023/02/14 14:42:48;;;;;;;22.63;18.23;;;;;;;16.50;38.66;100265.66;7090076;27;20242;-78
2023/02/14 14:46:12;;;;;;;23.40;16.97;;;;;;;16.53;38.77;100242.63;7087842;27;20209;-78
2023/02/14 14:49:34;;;;;;;25.83;20.07;;;;;;;16.41;38.70;100244.28;7088962;27;20269;-78
2023/02/14 14:52:57;;;;;;;23.83;15.87;;;;;;;16.59;38.50;100258.13;7088692;27;20299;-77
2023/02/14 14:56:23;;;;;;;19.43;15.83;;;;;;;16.60;39.03;100246.19;7081530;27;20223;-78
2023/02/14 14:59:48;;;;;;;17.43;15.27;;;;;;;16.71;38.29;100248.28;7088750;27;20189;-78
2023/02/14 15:03:16;;;;;;;21.17;16.20;;;;;;;16.25;39.00;100245.50;7087994;27;20209;-78
2023/02/14 15:06:37;;;;;;;21.03;15.73;;;;;;;16.15;38.88;100242.31;7087365;27;20232;-79
2023/02/14 15:09:59;;;;;;;19.33;14.60;;;;;;;16.14;39.07;100250.69;7088286;27;20289;-78
2023/02/14 15:17:12;;;;;;;25.40;19.90;;;;;;;16.16;39.74;100241.28;7087004;27;20687;-78
2023/02/14 15:20:35;;;;;;;22.43;18.27;;;;;;;16.24;39.70;100245.69;7087757;27;20247;-79
2023/02/14 15:23:57;;;;;;;20.57;15.77;;;;;;;16.36;39.71;100235.88;7086885;27;20234;-78
2023/02/14 15:27:21;;;;;;;22.73;17.33;;;;;;;16.28;39.84;100246.97;7087034;27;20308;-79
2023/02/14 15:30:45;;;;;;;20.80;15.80;;;;;;;16.15;40.42;100255.94;7087197;27;20269;-79
2023/02/14 15:34:07;;;;;;;22.10;16.90;;;;;;;15.87;40.79;100255.19;7088004;27;20212;-79
2023/02/14 15:37:29;;;;;;;20.30;16.57;;;;;;;15.44;41.46;100239.31;7087032;27;20660;-78
2023/02/14 15:40:50;;;;;;;22.20;17.50;;;;;;;15.29;42.32;100257.63;7073083;27;20599;-78
2023/02/14 15:44:18;;;;;;;22.63;18.37;;;;;;;15.37;42.12;100260.19;7084590;27;20228;-78
2023/02/14 15:47:42;;;;;;;20.70;16.83;;;;;;;15.07;42.86;100250.56;7058200;28;20276;-78
2023/02/14 15:51:05;;;;;;;22.77;17.57;;;;;;;14.69;43.72;100241.94;7058876;28;20297;-78
2023/02/14 15:54:32;;;;;;;25.90;19.23;;;;;;;14.58;44.18;100256.03;7058655;28;20212;-78
2023/02/14 15:57:55;;;;;;;32.83;22.30;;;;;;;14.58;44.17;100252.50;7058032;28;20218;-78
2023/02/14 16:01:20;;;;;;;24.30;19.47;;;;;;;14.84;43.90;100247.25;7070145;27;20288;-79
2023/02/14 16:04:43;;;;;;;25.57;20.83;;;;;;;14.82;43.72;100254.78;7086885;27;20677;-78
2023/02/14 16:08:07;;;;;;;23.63;20.23;;;;;;;14.71;44.10;100261.59;7086120;27;20710;-79
2023/02/14 16:11:30;;;;;;;25.07;19.30;;;;;;;13.85;45.69;100262.75;7086774;27;20246;-78
2023/02/14 16:15:01;;;;;;;23.40;17.50;;;;;;;13.85;45.39;100241.91;7086389;27;20302;-79